CET,Max TemperatureF,Mean TemperatureF,Min TemperatureF,Max Dew PointF,MeanDew PointF,Min DewpointF,Max Humidity, Mean Humidity, Min Humidity, Max Sea Level PressureIn, Mean Sea Level PressureIn, Min Sea Level PressureIn, Max VisibilityMiles, Mean VisibilityMiles, Min VisibilityMiles, Max Wind SpeedMPH, Mean Wind SpeedMPH, Max Gust SpeedMPH,PrecipitationIn, CloudCover, Events, WindDirDegrees
2011-11-1,50,46,42,46,43,41,100,94,82,30.15,30.11,30.09,4,2,0,7,5,,0.00,7,Fog,140
2011-11-2,44,42,41,41,40,39,100,91,87,30.12,30.09,30.01,6,4,2,7,5,,0.00,8,,162
2011-11-3,44,42,41,39,39,37,93,85,76,30.01,29.94,29.86,6,5,3,9,5,,0.00,8,,140
2011-11-4,44,43,42,41,40,39,93,84,81,29.89,29.85,29.83,6,6,6,9,6,,0.00,8,,131
2011-11-5,50,46,42,46,44,41,100,90,82,29.92,29.89,29.86,6,4,3,8,5,,0.00,7,,113
2011-11-6,59,50,41,46,42,39,100,82,63,30.06,29.99,29.95,6,4,2,13,7,,0.00,3,Fog,97
2011-11-7,53,46,39,41,39,37,93,78,62,30.18,30.11,30.06,6,5,4,14,8,,0.00,,,100
2011-11-8,48,44,41,43,42,39,93,87,81,30.18,30.18,30.15,6,4,4,9,6,,0.00,8,,117
2011-11-9,46,45,44,43,42,41,93,87,81,30.24,30.21,30.18,4,4,3,7,3,,0.00,8,,95
2011-11-10,46,39,32,43,39,28,100,91,81,30.30,30.25,30.21,6,4,2,14,5,,0.00,7,,74
2011-11-11,35,30,24,30,28,23,93,89,81,30.45,30.38,30.30,6,5,2,15,8,,0.00,4,,80
2011-11-12,41,32,24,32,28,23,100,87,65,30.60,30.54,30.45,5,4,2,12,5,,0.00,,,86
2011-11-13,42,33,24,34,28,23,100,91,70,30.60,30.56,30.48,3,2,0,7,2,,0.00,2,Fog,277
2011-11-14,44,34,23,34,27,21,100,91,66,30.45,30.34,30.24,2,1,0,9,3,,0.00,3,Fog,229
2011-11-15,28,24,21,28,25,19,100,96,93,30.24,30.22,30.21,0,0,0,7,2,,0.00,6,Fog,30
2011-11-16,30,28,26,28,27,25,100,97,93,30.27,30.25,30.24,2,1,0,7,5,,0.00,8,Fog,69
2011-11-17,35,32,28,34,31,28,100,97,93,30.24,30.23,30.21,3,2,1,9,5,,0.00,8,,154
2011-11-18,44,38,32,41,37,30,100,93,87,30.27,30.24,30.21,6,4,1,10,6,,0.00,7,,234
2011-11-19,44,37,30,39,36,30,100,93,76,30.24,30.22,30.21,6,3,0,7,4,,0.00,5,Fog,213
2011-11-20,41,34,28,36,32,28,100,90,75,30.24,30.23,30.18,6,5,2,8,4,,0.00,5,,183
2011-11-21,39,37,33,36,34,32,93,89,81,30.18,30.14,30.09,6,4,3,6,4,,0.00,4,Rain,116
2011-11-22,37,32,28,32,30,27,100,92,81,30.27,30.18,30.12,4,3,0,6,4,,0.00,6,Fog,31
2011-11-23,32,30,28,30,29,27,100,99,93,30.48,30.36,30.27,1,0,0,6,3,,0.00,8,Fog,139
2011-11-24,32,31,30,30,30,28,100,99,93,30.54,30.52,30.48,1,0,0,6,4,,0.00,8,Fog,215
2011-11-25,30,29,28,30,29,27,100,99,93,30.48,30.38,30.27,6,2,0,14,4,,0.00,8,Fog,171
2011-11-26,39,34,30,36,33,30,100,90,81,30.39,30.34,30.30,6,6,5,25,16,,0.00,4,,230
2011-11-27,50,42,35,37,33,30,87,72,47,30.30,30.11,29.98,6,6,6,30,16,41,0.00,4,,229
2011-11-28,46,39,32,37,32,28,87,74,57,30.39,30.33,30.18,6,6,6,18,11,,0.00,4,,212
2011-11-29,39,31,23,32,29,21,100,89,75,30.30,30.22,30.18,6,4,2,9,6,,0.00,7,,143
2011-11-30,39,32,26,36,32,25,100,95,81,30.39,30.31,30.18,5,2,0,8,4,,0.00,7,Fog-Rain,78